createdAt,value
2023-02-12T00:02:59.869Z,99064.75
2023-02-12T00:06:02.657Z,99066.41
2023-02-12T00:09:04.717Z,99072.25
2023-02-12T00:12:06.573Z,99073.03
2023-02-12T00:15:08.736Z,99068.72
2023-02-12T00:18:10.504Z,99064.47
2023-02-12T00:21:14.186Z,99067.09
2023-02-12T00:24:15.871Z,99061.91
2023-02-12T00:27:17.358Z,99060.97
2023-02-12T00:30:19.407Z,99064.69
2023-02-12T00:33:21.473Z,99067.34
2023-02-12T00:36:26.061Z,99065.53
2023-02-12T00:39:27.711Z,99067.97
2023-02-12T00:42:30.195Z,99071.34
2023-02-12T00:45:32.083Z,99078.41
2023-02-12T00:48:35.389Z,99085.50
2023-02-12T00:51:37.717Z,99080.38
2023-02-12T00:54:39.533Z,99069.09
2023-02-12T00:57:41.600Z,99068.88
2023-02-12T01:00:43.779Z,99072.94
2023-02-12T01:03:45.941Z,99078.16
2023-02-12T01:06:47.801Z,99071.59
2023-02-12T01:09:50.414Z,99076.88
2023-02-12T01:12:52.151Z,99075.88
2023-02-12T01:16:12.795Z,99073.16
2023-02-12T01:19:14.348Z,99071.69
2023-02-12T01:22:16.512Z,99055.56
2023-02-12T01:25:20.545Z,99067.91
2023-02-12T01:28:22.340Z,99053.97
2023-02-12T01:31:27.763Z,99057.34
2023-02-12T01:34:29.358Z,99060.81
2023-02-12T01:37:31.127Z,99049.47
2023-02-12T01:40:32.768Z,99050.56
2023-02-12T01:43:38.674Z,99048.00
2023-02-12T01:46:41.352Z,99046.44
2023-02-12T01:49:47.157Z,99049.97
2023-02-12T01:52:54.487Z,99043.16
2023-02-12T01:55:59.365Z,99047.38
2023-02-12T01:59:02.189Z,99043.91
2023-02-12T02:02:06.582Z,99038.75
2023-02-12T02:05:08.848Z,99041.59
2023-02-12T02:08:12.006Z,99042.47
2023-02-12T02:11:32.117Z,99038.06
2023-02-12T02:14:36.213Z,99034.69
2023-02-12T02:17:51.357Z,99039.25
2023-02-12T02:21:41.098Z,99036.72
2023-02-12T02:25:04.079Z,99031.53
2023-02-12T02:28:36.960Z,99042.84
2023-02-12T02:31:44.927Z,99039.56
2023-02-12T02:35:05.032Z,99034.56
2023-02-12T02:38:29.999Z,99037.09
2023-02-12T02:41:50.555Z,99032.72
2023-02-12T02:45:03.455Z,99040.53
2023-02-12T02:48:08.656Z,99040.53
2023-02-12T02:51:21.331Z,99048.31
2023-02-12T02:54:40.532Z,99035.81
2023-02-12T02:57:48.695Z,99037.47
2023-02-12T03:01:05.924Z,99047.16
2023-02-12T03:04:13.197Z,99042.75
2023-02-12T03:07:22.068Z,99048.91
2023-02-12T03:10:29.724Z,99037.69
2023-02-12T03:13:40.824Z,99046.44
2023-02-12T03:16:59.918Z,99041.41
2023-02-12T03:20:19.631Z,99036.88
2023-02-12T03:23:38.073Z,99048.19
2023-02-12T03:26:48.846Z,99036.53
2023-02-12T03:29:50.841Z,99040.56
2023-02-12T03:33:21.439Z,99033.75
2023-02-12T03:36:28.969Z,99037.41
2023-02-12T03:39:54.979Z,99038.41
2023-02-12T03:43:12.377Z,99040.22
2023-02-12T03:46:32.296Z,99045.44
2023-02-12T03:49:45.708Z,99035.66
2023-02-12T03:52:50.294Z,99039.22
2023-02-12T03:55:57.864Z,99030.69
2023-02-12T03:59:00.255Z,99041.09
2023-02-12T04:02:02.313Z,99039.22
2023-02-12T04:05:07.712Z,99036.44
2023-02-12T04:08:12.656Z,99035.81
2023-02-12T04:11:21.387Z,99042.84
2023-02-12T04:14:38.078Z,99047.25
2023-02-12T04:18:07.313Z,99051.72
2023-02-12T04:21:46.277Z,99050.00
2023-02-12T04:25:05.161Z,99061.25
2023-02-12T04:28:25.378Z,99058.53
2023-02-12T04:31:38.826Z,99067.09
2023-02-12T04:34:59.105Z,99064.41
2023-02-12T04:38:21.678Z,99062.13
2023-02-12T04:41:25.069Z,99066.13
2023-02-12T04:44:29.361Z,99065.22
2023-02-12T04:47:31.447Z,99062.09
2023-02-12T04:50:43.459Z,99053.69
2023-02-12T04:53:45.074Z,99057.00
2023-02-12T04:56:47.385Z,99056.91
2023-02-12T04:59:49.459Z,99048.34
2023-02-12T05:02:50.929Z,99051.69
2023-02-12T05:05:52.540Z,99045.59
2023-02-12T05:08:54.183Z,99047.19
2023-02-12T05:11:55.836Z,99044.59
2023-02-12T05:14:58.330Z,99044.59
2023-02-12T05:18:00.188Z,99039.66
2023-02-12T05:21:03.934Z,99037.06
2023-02-12T05:24:05.819Z,99034.47
2023-02-12T05:27:09.340Z,99036.84
2023-02-12T05:30:11.272Z,99031.94
2023-02-12T05:33:12.838Z,99034.59
2023-02-12T05:36:17.635Z,99034.59
2023-02-12T05:39:19.283Z,99037.03
2023-02-12T05:42:20.717Z,99031.00
2023-02-12T05:45:28.132Z,99043.88
2023-02-12T05:48:30.745Z,99021.44
2023-02-12T05:51:33.227Z,99025.81
2023-02-12T05:54:34.726Z,99035.22
2023-02-12T05:57:36.700Z,99026.66
2023-02-12T06:00:38.384Z,99028.38
2023-02-12T06:03:40.271Z,99019.09
2023-02-12T06:06:44.590Z,99021.75
2023-02-12T06:09:46.576Z,99018.19
2023-02-12T06:12:48.057Z,99018.97
2023-02-12T06:15:50.034Z,99016.53
2023-02-12T06:18:52.940Z,99023.53
2023-02-12T06:21:54.589Z,99018.41
2023-02-12T06:24:56.608Z,99011.34
2023-02-12T06:27:58.509Z,99012.13
2023-02-12T06:31:00.817Z,99015.81
2023-02-12T06:34:06.203Z,99021.97
2023-02-12T06:37:08.036Z,99018.25
2023-02-12T06:40:09.914Z,99018.84
2023-02-12T06:43:11.938Z,99022.97
2023-02-12T06:46:14.513Z,99022.75
2023-02-12T06:49:17.159Z,99020.38
2023-02-12T06:52:18.785Z,99027.88
2023-02-12T06:55:20.397Z,99021.59
2023-02-12T06:58:21.953Z,99014.78
2023-02-12T07:01:28.950Z,99031.69
2023-02-12T07:04:30.857Z,99025.69
2023-02-12T07:07:32.500Z,99036.78
2023-02-12T07:10:33.972Z,99033.19
2023-02-12T07:13:35.874Z,99034.59
2023-02-12T07:16:37.396Z,99023.34
2023-02-12T07:19:38.942Z,99019.69
2023-02-12T07:22:40.758Z,99034.13
2023-02-12T07:25:42.386Z,99037.06
2023-02-12T07:28:44.287Z,99033.34
2023-02-12T07:31:46.159Z,99042.47
2023-02-12T07:34:47.681Z,99036.94
2023-02-12T07:37:49.168Z,99040.72
2023-02-12T07:40:50.826Z,99033.25
2023-02-12T07:44:03.524Z,99039.91
2023-02-12T07:47:06.095Z,99045.72
2023-02-12T07:50:08.609Z,99034.72
2023-02-12T07:53:10.093Z,99034.47
2023-02-12T07:56:14.790Z,99025.41
2023-02-12T07:59:18.394Z,99031.78
2023-02-12T08:02:19.965Z,99033.09
2023-02-12T08:05:21.473Z,99034.88
2023-02-12T08:08:22.915Z,99037.81
2023-02-12T08:11:26.134Z,99037.91
2023-02-12T08:14:28.151Z,99031.00
2023-02-12T08:17:29.729Z,99043.38
2023-02-12T08:20:34.233Z,99039.84
2023-02-12T08:23:36.385Z,99046.03
2023-02-12T08:26:39.519Z,99050.31
2023-02-12T08:29:41.029Z,99043.78
2023-02-12T08:32:42.509Z,99046.00
2023-02-12T08:35:44.029Z,99052.66
2023-02-12T08:38:46.844Z,99054.19
2023-02-12T08:41:49.002Z,99048.16
2023-02-12T08:44:50.504Z,99053.44
2023-02-12T08:47:52.018Z,99060.41
2023-02-12T08:50:53.468Z,99049.13
2023-02-12T08:53:57.369Z,99047.94
2023-02-12T08:57:01.584Z,99052.75
2023-02-12T09:00:04.052Z,99046.03
2023-02-12T09:03:05.537Z,99040.09
2023-02-12T09:06:07.820Z,99049.03
2023-02-12T09:09:09.507Z,99044.25
2023-02-12T09:12:11.012Z,99038.44
2023-02-12T09:15:12.540Z,99023.59
2023-02-12T09:18:15.265Z,99033.09
2023-02-12T09:21:16.868Z,99032.41
2023-02-12T09:24:18.471Z,99029.72
2023-02-12T09:27:19.925Z,99036.00
2023-02-12T09:30:21.673Z,99025.38
2023-02-12T09:33:23.147Z,99020.53
2023-02-12T09:36:24.795Z,99017.38
2023-02-12T09:39:30.420Z,99021.06
2023-02-12T09:42:51.972Z,99015.72
2023-02-12T09:46:02.719Z,99010.16
2023-02-12T09:49:45.362Z,99021.28
2023-02-12T09:52:47.033Z,99013.81
2023-02-12T09:55:48.524Z,99019.69
2023-02-12T09:58:53.980Z,99022.50
2023-02-12T10:01:55.528Z,99017.34
2023-02-12T10:05:02.014Z,99007.53
2023-02-12T10:08:47.493Z,98998.09
2023-02-12T10:12:24.167Z,99001.44
2023-02-12T10:15:37.878Z,99005.69
2023-02-12T10:19:10.479Z,99000.44
2023-02-12T10:22:22.626Z,99008.34
2023-02-12T10:25:29.215Z,99004.25
2023-02-12T10:28:39.187Z,99009.09
2023-02-12T10:31:44.223Z,99011.66
2023-02-12T10:34:49.670Z,99008.34
2023-02-12T10:37:58.312Z,99011.84
2023-02-12T10:41:01.977Z,99004.22
2023-02-12T10:44:03.588Z,99008.22
2023-02-12T10:47:05.526Z,99009.56
2023-02-12T10:50:20.011Z,99003.91
2023-02-12T10:53:26.150Z,98993.75
2023-02-12T10:56:27.865Z,98997.94
2023-02-12T10:59:29.447Z,99000.69
2023-02-12T11:02:33.543Z,98996.50
2023-02-12T11:05:36.903Z,98985.03
2023-02-12T11:08:39.468Z,98986.22
2023-02-12T11:11:41.053Z,98983.16
2023-02-12T11:14:55.928Z,98973.19
2023-02-12T11:18:05.122Z,98970.34
2023-02-12T11:21:12.509Z,98976.34
2023-02-12T11:24:26.395Z,98977.16
2023-02-12T11:27:30.782Z,98964.56
2023-02-12T11:30:33.397Z,98967.06
2023-02-12T11:33:37.189Z,98964.97
2023-02-12T11:36:43.937Z,98961.56
2023-02-12T11:39:51.042Z,98973.34
2023-02-12T11:42:56.050Z,98947.34
2023-02-12T11:45:59.389Z,98956.59
2023-02-12T11:49:02.100Z,98953.09
2023-02-12T11:52:04.825Z,98951.00
2023-02-12T11:55:22.968Z,98949.22
2023-02-12T11:58:26.384Z,98939.09
2023-02-12T12:01:33.378Z,98933.97
2023-02-12T12:04:37.076Z,98936.75
2023-02-12T12:07:43.730Z,98934.53
2023-02-12T12:10:53.970Z,98938.75
2023-02-12T12:14:09.141Z,98924.38
2023-02-12T12:17:33.754Z,98934.34
2023-02-12T12:20:55.385Z,98931.69
2023-02-12T12:24:05.313Z,98922.25
2023-02-12T12:27:45.410Z,98920.94
2023-02-12T12:30:50.586Z,98915.69
2023-02-12T12:34:01.181Z,98914.88
2023-02-12T12:37:21.501Z,98906.00
2023-02-12T12:40:51.328Z,98914.16
2023-02-12T12:44:19.238Z,98909.25
2023-02-12T12:47:34.780Z,98905.06
2023-02-12T12:51:12.067Z,98901.13
2023-02-12T12:54:39.308Z,98904.13
2023-02-12T12:58:10.506Z,98903.03
2023-02-12T13:01:40.102Z,98899.69
2023-02-12T13:04:56.159Z,98896.69
2023-02-12T13:08:11.776Z,98896.31
2023-02-12T13:11:22.280Z,98896.44
2023-02-12T13:14:46.846Z,98896.06
2023-02-12T13:18:00.134Z,98898.31
2023-02-12T13:21:14.762Z,98903.00
2023-02-12T13:24:29.262Z,98894.50
2023-02-12T13:27:43.012Z,98891.13
2023-02-12T13:30:52.144Z,98897.59
2023-02-12T13:33:58.308Z,98884.59
2023-02-12T13:37:06.564Z,98888.41
2023-02-12T13:40:24.348Z,98887.47
2023-02-12T13:43:44.083Z,98883.78
2023-02-12T13:47:05.815Z,98877.88
2023-02-12T13:50:20.058Z,98871.84
2023-02-12T13:53:58.763Z,98875.91
2023-02-12T13:57:13.592Z,98862.59
2023-02-12T14:01:08.571Z,98869.06
2023-02-12T14:04:24.793Z,98865.78
2023-02-12T14:07:45.677Z,98866.47
2023-02-12T14:11:05.197Z,98856.28
2023-02-12T14:14:06.797Z,98862.13
2023-02-12T14:17:31.419Z,98860.91
2023-02-12T14:20:36.460Z,98859.72
2023-02-12T14:23:39.224Z,98851.50
2023-02-12T14:26:41.030Z,98856.88
2023-02-12T14:30:20.212Z,98850.59
2023-02-12T14:33:25.655Z,98852.22
2023-02-12T14:36:33.052Z,98851.25
2023-02-12T14:39:34.595Z,98853.41
2023-02-12T14:42:36.994Z,98858.56
2023-02-12T14:45:38.547Z,98847.38
2023-02-12T14:48:56.182Z,98849.94
2023-02-12T14:52:07.309Z,98848.06
2023-02-12T14:55:22.320Z,98855.19
2023-02-12T14:58:25.711Z,98839.34
2023-02-12T15:01:32.991Z,98860.13
2023-02-12T15:04:38.213Z,98860.09
2023-02-12T15:07:52.795Z,98854.88
2023-02-12T15:11:17.908Z,98861.13
2023-02-12T15:14:24.262Z,98858.72
2023-02-12T15:17:29.833Z,98863.84
2023-02-12T15:20:38.236Z,98858.91
2023-02-12T15:23:43.107Z,98859.59
2023-02-12T15:26:50.369Z,98859.25
2023-02-12T15:29:53.870Z,98872.03
2023-02-12T15:32:57.966Z,98875.06
2023-02-12T15:36:02.009Z,98867.19
2023-02-12T15:39:08.253Z,98877.66
2023-02-12T15:42:29.829Z,98881.81
2023-02-12T15:45:33.791Z,98881.25
2023-02-12T15:48:37.220Z,98873.97
2023-02-12T15:51:41.660Z,98873.28
2023-02-12T15:54:45.263Z,98873.13
2023-02-12T15:57:53.310Z,98873.06
2023-02-12T16:01:00.368Z,98866.13
2023-02-12T16:04:05.294Z,98876.16
2023-02-12T16:07:08.004Z,98880.72
2023-02-12T16:10:14.266Z,98872.28
2023-02-12T16:13:25.779Z,98877.81
2023-02-12T16:16:30.184Z,98878.00
2023-02-12T16:19:40.194Z,98875.38
2023-02-12T16:22:44.243Z,98872.47
2023-02-12T16:25:55.069Z,98869.63
2023-02-12T16:28:58.168Z,98871.56
2023-02-12T16:32:03.477Z,98872.63
2023-02-12T16:35:11.166Z,98872.47
2023-02-12T16:38:44.864Z,98874.97
2023-02-12T16:41:56.998Z,98876.47
2023-02-12T16:44:58.591Z,98875.75
2023-02-12T16:48:06.742Z,98880.78
2023-02-12T16:51:24.943Z,98883.09
2023-02-12T16:54:34.866Z,98890.13
2023-02-12T16:57:36.351Z,98885.88
2023-02-12T17:00:38.956Z,98886.56
2023-02-12T17:03:40.675Z,98880.38
2023-02-12T17:06:43.556Z,98884.13
2023-02-12T17:09:45.170Z,98885.25
2023-02-12T17:12:51.806Z,98889.34
2023-02-12T17:15:58.866Z,98887.00
2023-02-12T17:19:00.880Z,98901.09
2023-02-12T17:22:04.072Z,98888.84
2023-02-12T17:25:05.804Z,98901.78
2023-02-12T17:28:08.774Z,98891.78
2023-02-12T17:31:10.800Z,98883.22
2023-02-12T17:34:12.248Z,98893.88
2023-02-12T17:37:13.744Z,98892.28
2023-02-12T17:40:15.231Z,98884.91
2023-02-12T17:43:17.024Z,98886.38
2023-02-12T17:46:21.620Z,98890.13
2023-02-12T17:49:23.124Z,98890.84
2023-02-12T17:52:24.587Z,98889.34
2023-02-12T17:55:26.075Z,98891.03
2023-02-12T17:58:27.677Z,98894.63
2023-02-12T18:01:29.266Z,98894.59
2023-02-12T18:04:35.716Z,98895.78
2023-02-12T18:07:37.519Z,98898.50
2023-02-12T18:10:43.197Z,98891.09
2023-02-12T18:13:45.123Z,98896.31
2023-02-12T18:16:47.000Z,98891.38
2023-02-12T18:19:49.343Z,98896.94
2023-02-12T18:22:50.854Z,98893.31
2023-02-12T18:25:52.345Z,98900.44
2023-02-12T18:28:54.124Z,98900.59
2023-02-12T18:31:55.680Z,98903.47
2023-02-12T18:34:57.238Z,98891.84
2023-02-12T18:37:58.969Z,98898.09
2023-02-12T18:41:05.073Z,98888.56
2023-02-12T18:44:06.609Z,98893.69
2023-02-12T18:47:08.248Z,98882.50
2023-02-12T18:50:10.158Z,98890.59
2023-02-12T18:53:11.642Z,98887.63
2023-02-12T18:56:13.317Z,98892.00
2023-02-12T18:59:15.651Z,98886.47
2023-02-12T19:02:17.306Z,98889.00
2023-02-12T19:05:18.752Z,98880.38
2023-02-12T19:08:20.208Z,98889.22
2023-02-12T19:11:21.800Z,98881.22
2023-02-12T19:14:25.457Z,98871.50
2023-02-12T19:17:27.008Z,98881.28
2023-02-12T19:20:28.559Z,98879.50
2023-02-12T19:23:30.048Z,98878.47
2023-02-12T19:26:34.212Z,98882.69
2023-02-12T19:29:35.684Z,98890.56
2023-02-12T19:32:38.080Z,98877.00
2023-02-12T19:35:39.537Z,98888.38
2023-02-12T19:38:41.275Z,98882.22
2023-02-12T19:41:43.291Z,98887.97
2023-02-12T19:44:46.671Z,98891.41
2023-02-12T19:47:50.668Z,98893.44
2023-02-12T19:50:52.194Z,98892.06
2023-02-12T19:53:54.180Z,98901.34
2023-02-12T19:56:55.760Z,98901.41
2023-02-12T19:59:57.292Z,98900.91
2023-02-12T20:02:58.750Z,98901.94
2023-02-12T20:06:02.179Z,98891.63
2023-02-12T20:09:04.663Z,98892.69
2023-02-12T20:12:06.426Z,98902.81
2023-02-12T20:15:08.344Z,98901.81
2023-02-12T20:18:10.770Z,98904.13
2023-02-12T20:21:16.051Z,98905.88
2023-02-12T20:24:17.616Z,98901.81
2023-02-12T20:27:19.123Z,98905.59
2023-02-12T20:30:20.834Z,98905.78
2023-02-12T20:33:22.360Z,98911.00
2023-02-12T20:36:25.163Z,98901.81
2023-02-12T20:39:26.708Z,98915.06
2023-02-12T20:42:28.185Z,98914.66
2023-02-12T20:45:29.713Z,98918.31
2023-02-12T20:48:31.425Z,98920.28
2023-02-12T20:51:33.107Z,98921.94
2023-02-12T20:54:34.694Z,98928.03
2023-02-12T20:57:36.218Z,98913.75
2023-02-12T21:00:37.807Z,98926.63
2023-02-12T21:03:39.440Z,98919.19
2023-02-12T21:06:41.628Z,98917.59
2023-02-12T21:09:43.191Z,98916.75
2023-02-12T21:12:44.741Z,98930.25
2023-02-12T21:15:46.348Z,98925.19
2023-02-12T21:18:48.668Z,98931.50
2023-02-12T21:21:50.252Z,98930.44
2023-02-12T21:24:51.767Z,98930.50
2023-02-12T21:27:53.271Z,98924.91
2023-02-12T21:30:54.719Z,98926.69
2023-02-12T21:33:57.912Z,98928.50
2023-02-12T21:36:59.390Z,98940.66
2023-02-12T21:40:00.904Z,98929.41
2023-02-12T21:43:02.442Z,98939.41
2023-02-12T21:46:04.693Z,98929.72
2023-02-12T21:49:07.258Z,98933.97
2023-02-12T21:52:08.842Z,98928.84
2023-02-12T21:55:10.364Z,98929.13
2023-02-12T21:58:11.889Z,98934.16
2023-02-12T22:01:25.659Z,98932.63
2023-02-12T22:04:28.068Z,98930.69
2023-02-12T22:07:29.570Z,98929.41
2023-02-12T22:10:31.269Z,98931.94
2023-02-12T22:13:33.586Z,98918.25
2023-02-12T22:16:36.459Z,98911.19
2023-02-12T22:19:38.123Z,98925.97
2023-02-12T22:22:40.150Z,98930.53
2023-02-12T22:25:41.670Z,98929.25
2023-02-12T22:28:44.465Z,98930.03
2023-02-12T22:31:47.597Z,98922.53
2023-02-12T22:34:49.317Z,98918.59
2023-02-12T22:37:50.821Z,98922.25
2023-02-12T22:40:53.137Z,98922.94
2023-02-12T22:43:55.161Z,98918.75
2023-02-12T22:46:57.028Z,98922.31
2023-02-12T22:49:59.825Z,98920.00
2023-02-12T22:53:01.428Z,98928.28
2023-02-12T22:56:05.115Z,98925.84
2023-02-12T22:59:06.945Z,98931.88
2023-02-12T23:02:09.361Z,98937.22
2023-02-12T23:05:10.827Z,98932.00
2023-02-12T23:08:12.393Z,98926.09
2023-02-12T23:11:13.923Z,98928.16
2023-02-12T23:14:15.932Z,98938.53
2023-02-12T23:17:17.440Z,98936.91
2023-02-12T23:20:19.058Z,98944.09
2023-02-12T23:23:21.874Z,98934.78
2023-02-12T23:26:23.480Z,98941.03
2023-02-12T23:29:25.069Z,98936.19
2023-02-12T23:32:26.538Z,98945.41
2023-02-12T23:35:28.136Z,98949.66
2023-02-12T23:38:29.646Z,98954.09
2023-02-12T23:41:31.406Z,98948.59
2023-02-12T23:44:32.933Z,98958.34
2023-02-12T23:47:34.393Z,98949.94
2023-02-12T23:50:35.898Z,98943.84
2023-02-12T23:53:37.429Z,98956.69
2023-02-12T23:56:39.347Z,98959.28
2023-02-12T23:59:40.827Z,98956.75
